Time;durP1;ratioP1;P1;durP2;ratioP2;P2;SDS_P1;SDS_P2;PMS_P1;PMS_P2;Temp;Humidity;BMP_temperature;BMP_pressure;BME280_temperature;BME280_humidity;BME280_pressure;Samples;Min_cycle;Max_cycle;Signal;HPM_P1;HPM_P2
2021/12/12 00:02:11;;;;;;;19.88;18.17;;;20.20;49.80;;;;;;5031995;28;20049;-66
2021/12/12 00:04:38;;;;;;;20.13;18.33;;;20.20;49.80;;;;;;5032144;28;20042;-66
2021/12/12 00:07:07;;;;;;;18.95;17.20;;;20.20;49.90;;;;;;5032434;28;20037;-66
2021/12/12 00:09:35;;;;;;;18.50;16.88;;;20.20;49.90;;;;;;5032140;28;20516;-66
2021/12/12 00:12:07;;;;;;;19.17;17.40;;;20.20;49.90;;;;;;5013951;28;20505;-66
2021/12/12 00:14:33;;;;;;;18.38;16.75;;;20.20;49.90;;;;;;5032389;28;20124;-66
2021/12/12 00:16:59;;;;;;;18.00;16.17;;;20.10;49.80;;;;;;5013736;28;20046;-66
2021/12/12 00:19:25;;;;;;;18.13;16.38;;;20.20;49.80;;;;;;5015165;28;20045;-66
2021/12/12 00:21:52;;;;;;;17.02;15.52;;;20.10;49.80;;;;;;5018206;28;20482;-66
2021/12/12 00:24:18;;;;;;;17.40;15.70;;;20.10;49.80;;;;;;5017533;28;20053;-66
2021/12/12 00:26:46;;;;;;;17.15;15.65;;;20.10;49.90;;;;;;5035502;28;20029;-66
2021/12/12 00:29:12;;;;;;;16.52;14.90;;;20.10;50.00;;;;;;5035984;28;20042;-66
2021/12/12 00:31:38;;;;;;;17.30;15.80;;;20.10;49.90;;;;;;5035364;28;20053;-66
2021/12/12 00:34:04;;;;;;;15.82;14.48;;;20.00;49.80;;;;;;5035377;28;20037;-66
2021/12/12 00:36:32;;;;;;;16.20;14.75;;;20.00;49.80;;;;;;5017902;28;20045;-66
2021/12/12 00:38:59;;;;;;;15.80;14.20;;;20.00;49.80;;;;;;5016553;28;20049;-66
2021/12/12 00:41:45;;;;;;;16.00;14.50;;;20.00;49.90;;;;;;5017904;28;20132;-66
2021/12/12 00:44:12;;;;;;;14.82;13.43;;;20.00;49.80;;;;;;5001773;28;20042;-66
2021/12/12 00:46:37;;;;;;;14.40;12.98;;;20.00;49.90;;;;;;5035154;28;20050;-66
2021/12/12 00:49:03;;;;;;;14.70;13.20;;;20.00;49.90;;;;;;5035379;28;20048;-67
2021/12/12 00:51:31;;;;;;;14.52;13.20;;;20.00;49.90;;;;;;5017545;28;20037;-66
2021/12/12 00:53:57;;;;;;;13.93;12.73;;;20.00;50.00;;;;;;5017130;28;20084;-65
2021/12/12 00:56:23;;;;;;;14.35;12.98;;;20.00;50.00;;;;;;5035419;28;20060;-65
2021/12/12 00:58:49;;;;;;;14.07;12.68;;;20.00;49.90;;;;;;5017096;28;20486;-66
2021/12/12 01:01:35;;;;;;;13.68;12.38;;;20.00;50.00;;;;;;5034817;28;20442;-66
2021/12/12 01:04:05;;;;;;;13.88;12.50;;;20.00;50.00;;;;;;5016988;28;20096;-66
2021/12/12 01:06:30;;;;;;;13.25;11.95;;;20.00;50.00;;;;;;5016836;28;20175;-66
2021/12/12 01:08:59;;;;;;;12.95;11.63;;;20.00;49.90;;;;;;5017351;28;20509;-65
2021/12/12 01:11:29;;;;;;;12.85;11.25;;;20.00;49.90;;;;;;5017396;28;20037;-65
2021/12/12 01:13:54;;;;;;;12.68;11.57;;;20.00;49.90;;;;;;5016753;28;20049;-65
2021/12/12 01:16:24;;;;;;;13.65;11.52;;;20.00;49.90;;;;;;5016190;28;20045;-65
2021/12/12 01:18:53;;;;;;;11.73;10.70;;;20.00;50.00;;;;;;5034355;28;20056;-65
2021/12/12 01:21:24;;;;;;;12.23;11.02;;;20.00;49.90;;;;;;5017286;28;20099;-65
2021/12/12 01:23:59;;;;;;;12.00;10.77;;;20.00;49.90;;;;;;5034754;28;20045;-65
2021/12/12 01:26:28;;;;;;;11.63;10.52;;;20.00;49.80;;;;;;5016978;28;20051;-66
2021/12/12 01:28:54;;;;;;;11.10;10.00;;;20.00;49.80;;;;;;5032889;28;20109;-65
2021/12/12 01:31:24;;;;;;;10.90;9.82;;;20.00;49.80;;;;;;5034720;28;20051;-66
2021/12/12 01:33:58;;;;;;;11.23;10.02;;;20.00;50.50;;;;;;5016366;28;20440;-65
2021/12/12 01:36:27;;;;;;;10.93;9.82;;;20.00;49.70;;;;;;5016748;28;20042;-65
2021/12/12 01:38:55;;;;;;;10.25;9.30;;;20.00;50.40;;;;;;5034411;28;20124;-65
2021/12/12 01:41:36;;;;;;;10.80;9.63;;;20.00;49.70;;;;;;5034015;28;20049;-65
2021/12/12 01:44:06;;;;;;;10.05;9.02;;;20.00;49.60;;;;;;5006843;28;20057;-65
2021/12/12 01:46:35;;;;;;;10.60;9.02;;;20.00;49.60;;;;;;4996896;28;20545;-65
2021/12/12 01:49:14;;;;;;;10.27;9.18;;;20.00;49.70;;;;;;4980411;28;20054;-65
2021/12/12 01:51:40;;;;;;;10.68;9.18;;;20.00;49.70;;;;;;4997237;28;20046;-65
2021/12/12 01:54:06;;;;;;;9.32;8.43;;;20.00;49.70;;;;;;4996756;28;20046;-65
2021/12/12 01:56:39;;;;;;;10.10;9.10;;;20.00;49.70;;;;;;5014111;28;20112;-65
2021/12/12 01:59:05;;;;;;;9.23;8.32;;;20.00;49.70;;;;;;5014402;28;20065;-65
2021/12/12 02:01:35;;;;;;;9.40;8.50;;;20.00;49.70;;;;;;4996530;28;20046;-65
2021/12/12 02:04:11;;;;;;;8.93;8.02;;;20.00;49.70;;;;;;5013415;28;20072;-65
2021/12/12 02:06:36;;;;;;;8.95;8.05;;;20.00;49.70;;;;;;5014370;28;20046;-65
2021/12/12 02:09:03;;;;;;;9.75;8.35;;;20.00;49.70;;;;;;4996214;28;20049;-65
2021/12/12 02:11:31;;;;;;;8.65;7.85;;;20.00;49.70;;;;;;4996537;28;20042;-65
2021/12/12 02:13:57;;;;;;;8.73;7.47;;;20.00;49.70;;;;;;4996367;28;20505;-65
2021/12/12 02:16:25;;;;;;;9.23;7.07;;;20.00;49.70;;;;;;5012686;28;20049;-65
2021/12/12 02:18:53;;;;;;;9.00;6.95;;;20.00;49.70;;;;;;4995599;28;20054;-65
2021/12/12 02:21:32;;;;;;;;;;;20.00;49.70;;;;;;4996949;28;20482;-65
2021/12/12 02:35:30;;;;;;;7.30;6.57;;;20.00;49.60;;;;;;5015857;28;20089;-66
2021/12/12 02:37:57;;;;;;;8.05;7.25;;;20.00;49.60;;;;;;5015208;28;20488;-65
2021/12/12 02:40:38;;;;;;;7.93;6.53;;;20.00;49.60;;;;;;5033464;28;20045;-65
2021/12/12 02:43:04;;;;;;;8.18;6.45;;;20.00;49.70;;;;;;5031176;28;20409;-65
2021/12/12 02:45:32;;;;;;;7.38;6.30;;;20.00;49.60;;;;;;5014901;28;20049;-65
2021/12/12 02:48:01;;;;;;;8.23;5.87;;;20.00;49.60;;;;;;5015919;28;20045;-65
2021/12/12 02:50:37;;;;;;;8.45;6.30;;;20.00;49.60;;;;;;5015477;28;20319;-65
2021/12/12 02:53:11;;;;;;;7.47;5.95;;;20.00;49.60;;;;;;5032782;28;20049;-65
2021/12/12 02:55:39;;;;;;;6.72;5.90;;;20.00;49.60;;;;;;5033311;28;20042;-64
2021/12/12 02:58:06;;;;;;;8.10;6.30;;;20.00;49.60;;;;;;5032685;28;20406;-65
2021/12/12 03:00:34;;;;;;;7.03;5.60;;;20.00;49.60;;;;;;5028992;28;20109;-65
2021/12/12 03:03:00;;;;;;;;;;;20.00;49.60;;;;;;5013473;28;20069;-65
2021/12/12 03:05:29;;;;;;;8.27;5.55;;;20.00;49.70;;;;;;5012237;28;19928;-65
2021/12/12 03:07:55;;;;;;;10.02;5.85;;;20.00;49.70;;;;;;4994997;28;20058;-64
2021/12/12 03:10:24;;;;;;;6.68;5.20;;;20.00;49.70;;;;;;5013248;28;20449;-65
2021/12/12 03:12:50;;;;;;;7.15;5.38;;;20.00;49.70;;;;;;5012216;28;20121;-65
2021/12/12 03:15:18;;;;;;;6.97;5.57;;;20.00;49.70;;;;;;4995515;28;20510;-65
2021/12/12 03:17:45;;;;;;;6.35;5.10;;;20.00;49.60;;;;;;5012816;28;20074;-65
2021/12/12 03:20:23;;;;;;;6.50;5.35;;;20.10;49.70;;;;;;5012669;28;20050;-65
2021/12/12 03:23:04;;;;;;;6.70;5.15;;;20.10;49.70;;;;;;5012877;28;20042;-65
2021/12/12 03:25:32;;;;;;;6.50;4.68;;;20.10;49.70;;;;;;5013321;28;20046;-65
2021/12/12 03:27:57;;;;;;;7.00;5.00;;;20.10;49.60;;;;;;4994729;28;20053;-65
2021/12/12 03:30:23;;;;;;;5.65;4.55;;;20.10;49.70;;;;;;4995103;28;20816;-65
2021/12/12 03:32:48;;;;;;;10.07;5.25;;;20.10;49.70;;;;;;5012709;28;20050;-65
2021/12/12 03:35:14;;;;;;;7.10;5.05;;;20.10;49.70;;;;;;5012756;28;20485;-65
2021/12/12 03:37:39;;;;;;;6.18;4.30;;;20.10;49.60;;;;;;5012867;28;20129;-65
2021/12/12 03:40:14;;;;;;;5.88;4.32;;;20.10;49.60;;;;;;4994818;28;20068;-65
2021/12/12 03:42:40;;;;;;;5.43;4.50;;;20.10;49.60;;;;;;5012304;28;20397;-65
2021/12/12 03:45:06;;;;;;;6.05;4.38;;;20.10;49.60;;;;;;5012201;28;20109;-65
2021/12/12 03:47:35;;;;;;;7.75;4.78;;;20.10;49.60;;;;;;4995021;28;20038;-65
2021/12/12 03:50:04;;;;;;;6.60;4.43;;;20.10;49.60;;;;;;4994036;28;20053;-65
2021/12/12 03:52:30;;;;;;;4.40;3.97;;;20.20;49.70;;;;;;5013070;28;20052;-65
2021/12/12 03:54:58;;;;;;;5.47;4.22;;;20.10;49.60;;;;;;5013890;28;20128;-65
2021/12/12 03:57:23;;;;;;;5.68;4.25;;;20.20;49.70;;;;;;5016909;28;20069;-65
2021/12/12 03:59:49;;;;;;;7.22;4.10;;;20.10;49.60;;;;;;5016129;28;20046;-65
2021/12/12 04:02:14;;;;;;;5.22;3.88;;;20.20;49.60;;;;;;5015841;28;20061;-65
2021/12/12 04:04:42;;;;;;;6.07;3.90;;;20.20;49.60;;;;;;4999035;28;20409;-65
2021/12/12 04:07:10;;;;;;;5.65;3.65;;;20.20;49.60;;;;;;4999061;28;20042;-65
2021/12/12 04:09:36;;;;;;;5.80;4.10;;;20.20;49.60;;;;;;5016004;28;20105;-65
2021/12/12 04:12:04;;;;;;;4.03;3.50;;;20.20;49.60;;;;;;4998895;28;20050;-65
2021/12/12 04:14:30;;;;;;;6.43;3.78;;;20.20;49.50;;;;;;5016272;28;20116;-65
2021/12/12 04:16:57;;;;;;;4.68;3.50;;;20.20;49.50;;;;;;5015337;28;20160;-65
2021/12/12 04:19:23;;;;;;;4.73;3.47;;;20.20;49.50;;;;;;5016419;28;20064;-64
2021/12/12 04:21:48;;;;;;;4.50;3.30;;;20.20;49.50;;;;;;5015692;28;20041;-64
2021/12/12 04:24:25;;;;;;;5.30;3.28;;;20.20;49.50;;;;;;5016056;28;20042;-65
2021/12/12 04:26:51;;;;;;;5.88;3.80;;;20.20;49.50;;;;;;4998522;28;20516;-65
2021/12/12 04:29:28;;;;;;;5.68;3.40;;;20.20;49.50;;;;;;5015934;28;20132;-65
2021/12/12 04:31:59;;;;;;;5.20;3.45;;;20.20;49.50;;;;;;4997729;28;20042;-65
2021/12/12 04:34:26;;;;;;;4.75;3.45;;;20.20;49.50;;;;;;4998176;28;20453;-65
2021/12/12 04:36:52;;;;;;;5.68;3.50;;;20.20;49.50;;;;;;4998164;28;20112;-64
2021/12/12 04:39:25;;;;;;;4.80;3.00;;;20.20;49.40;;;;;;5015304;28;20049;-65
2021/12/12 04:41:52;;;;;;;4.85;3.30;;;20.20;49.40;;;;;;4997893;28;20048;-65
2021/12/12 04:44:27;;;;;;;4.57;3.10;;;20.20;49.40;;;;;;4998111;28;20054;-65
2021/12/12 04:49:55;;;;;;;4.85;2.90;;;20.20;49.40;;;;;;5014477;28;20053;-64
2021/12/12 04:52:44;;;;;;;5.38;3.10;;;20.20;49.40;;;;;;4997942;28;20050;-64
2021/12/12 04:55:19;;;;;;;4.03;2.78;;;20.20;49.40;;;;;;4998301;28;20058;-65
2021/12/12 04:57:49;;;;;;;4.88;3.13;;;20.20;49.40;;;;;;4997635;28;20054;-65
2021/12/12 05:00:18;;;;;;;5.88;2.92;;;20.30;49.50;;;;;;4996466;28;20405;-65
2021/12/12 05:03:12;;;;;;;5.18;2.97;;;20.30;49.50;;;;;;4997481;28;20125;-65
2021/12/12 05:05:58;;;;;;;4.40;2.75;;;20.20;49.40;;;;;;4979641;28;20061;-65
2021/12/12 05:08:38;;;;;;;4.93;2.75;;;20.20;49.40;;;;;;4980647;28;20560;-64
2021/12/12 05:11:07;;;;;;;4.80;2.60;;;20.20;49.40;;;;;;4981515;28;20050;-65
2021/12/12 05:13:41;;;;;;;5.95;3.05;;;20.20;49.40;;;;;;4981066;28;20168;-64
2021/12/12 05:16:16;;;;;;;5.25;2.42;;;20.30;49.40;;;;;;4997231;28;20068;-65
2021/12/12 05:18:49;;;;;;;6.45;2.85;;;20.30;49.40;;;;;;4981712;28;20046;-64
2021/12/12 05:21:26;;;;;;;3.95;2.60;;;20.30;49.40;;;;;;4997480;28;20042;-64
2021/12/12 05:23:55;;;;;;;4.80;2.90;;;20.30;49.40;;;;;;4997180;28;20485;-65
2021/12/12 05:26:29;;;;;;;4.80;2.20;;;20.30;49.30;;;;;;4997901;28;20052;-65
2021/12/12 05:29:04;;;;;;;4.95;2.42;;;20.30;49.30;;;;;;4998716;28;20061;-65
2021/12/12 05:31:30;;;;;;;3.97;2.20;;;20.30;49.30;;;;;;4981385;28;20053;-65
2021/12/12 05:33:56;;;;;;;4.13;2.17;;;20.30;49.30;;;;;;4980586;28;20041;-65
2021/12/12 05:36:22;;;;;;;4.88;2.00;;;20.30;49.30;;;;;;4997618;28;20095;-64
2021/12/12 05:38:48;;;;;;;3.78;2.10;;;20.30;49.30;;;;;;4996810;28;20108;-65
2021/12/12 05:41:19;;;;;;;4.60;2.25;;;20.30;49.40;;;;;;4998290;28;20046;-65
2021/12/12 05:43:46;;;;;;;3.88;2.15;;;20.30;49.30;;;;;;5001095;28;20056;-65
2021/12/12 05:46:15;;;;;;;4.47;2.35;;;20.30;49.20;;;;;;4983993;28;20037;-65
2021/12/12 05:48:43;;;;;;;4.57;2.10;;;20.30;49.20;;;;;;5000300;28;20042;-65
2021/12/12 05:51:08;;;;;;;2.88;2.20;;;20.40;49.30;;;;;;5016747;28;20046;-65
2021/12/12 05:53:34;;;;;;;5.88;2.20;;;20.30;49.20;;;;;;4999932;28;20080;-65
2021/12/12 05:56:00;;;;;;;3.70;1.75;;;20.30;49.20;;;;;;5014807;28;20041;-65
2021/12/12 05:58:25;;;;;;;2.75;1.77;;;20.30;49.20;;;;;;5016603;28;20068;-65
2021/12/12 06:00:56;;;;;;;3.47;2.00;;;20.30;49.20;;;;;;5015162;28;20050;-65
2021/12/12 06:03:28;;;;;;;3.10;2.05;;;20.30;49.10;;;;;;5015993;28;20107;-65
2021/12/12 06:05:54;;;;;;;3.25;1.77;;;20.30;49.20;;;;;;5016097;28;20053;-65
2021/12/12 06:08:24;;;;;;;2.25;1.38;;;20.40;49.30;;;;;;5000094;28;20041;-65
2021/12/12 06:10:50;;;;;;;3.92;1.88;;;20.40;49.20;;;;;;4978610;28;20049;-65
2021/12/12 06:13:16;;;;;;;2.63;1.58;;;20.40;49.20;;;;;;4980543;28;20144;-65
2021/12/12 06:15:43;;;;;;;3.05;1.73;;;20.40;49.20;;;;;;4979674;28;20449;-65
2021/12/12 06:18:08;;;;;;;2.70;1.60;;;20.40;49.20;;;;;;4979966;28;20077;-65
2021/12/12 06:20:34;;;;;;;2.45;1.45;;;20.40;49.20;;;;;;4980107;28;20077;-65
2021/12/12 06:22:59;;;;;;;3.22;1.70;;;20.40;49.20;;;;;;4963431;28;20077;-65
2021/12/12 06:25:25;;;;;;;3.05;1.48;;;20.40;49.20;;;;;;4980713;28;20126;-65
2021/12/12 06:27:51;;;;;;;1.95;1.40;;;20.40;49.90;;;;;;4995901;28;20046;-65
2021/12/12 06:30:18;;;;;;;3.05;1.40;;;20.40;49.20;;;;;;5013375;28;20472;-65
2021/12/12 06:32:44;;;;;;;2.47;1.50;;;20.40;49.20;;;;;;5013917;28;20049;-65
2021/12/12 06:35:09;;;;;;;3.13;1.50;;;20.40;49.20;;;;;;4995995;28;20042;-65
2021/12/12 06:37:35;;;;;;;3.55;1.60;;;20.40;49.20;;;;;;5013231;28;20092;-65
2021/12/12 06:40:01;;;;;;;4.45;1.30;;;20.40;49.20;;;;;;4979719;28;20049;-65
2021/12/12 06:42:27;;;;;;;2.92;1.60;;;20.40;49.10;;;;;;5013268;28;20073;-65
2021/12/12 06:44:52;;;;;;;2.72;1.30;;;20.40;49.20;;;;;;5012996;28;20054;-65
2021/12/12 06:47:18;;;;;;;2.53;1.42;;;20.40;49.10;;;;;;4996051;28;20045;-65
2021/12/12 06:49:44;;;;;;;2.67;1.45;;;20.40;49.20;;;;;;4995583;28;20124;-65
2021/12/12 06:52:10;;;;;;;2.95;1.48;;;20.40;49.20;;;;;;4995738;28;20038;-65
2021/12/12 06:54:36;;;;;;;2.00;1.20;;;20.40;49.10;;;;;;5013651;28;20052;-65
2021/12/12 06:57:05;;;;;;;1.65;1.10;;;20.40;49.20;;;;;;4995234;28;20054;-65
2021/12/12 06:59:31;;;;;;;;;;;20.50;49.20;;;;;;4995645;28;20049;-66
2021/12/12 07:01:56;;;;;;;2.40;1.10;;;20.40;49.20;;;;;;4995454;28;19921;-65
2021/12/12 07:04:22;;;;;;;2.70;1.58;;;20.40;49.20;;;;;;4995393;28;20045;-65
2021/12/12 07:06:49;;;;;;;2.53;1.10;;;20.40;49.30;;;;;;4994957;28;20176;-66
2021/12/12 07:09:14;;;;;;;1.90;0.93;;;20.40;49.20;;;;;;5013214;28;20049;-65
2021/12/12 07:11:40;;;;;;;2.55;1.15;;;20.40;49.20;;;;;;4995747;28;20392;-65
2021/12/12 07:14:06;;;;;;;2.25;1.10;;;20.50;49.30;;;;;;4995416;28;20046;-66
2021/12/12 07:16:32;;;;;;;2.00;1.23;;;20.40;49.20;;;;;;4995525;28;20104;-66
2021/12/12 07:18:57;;;;;;;1.85;1.08;;;20.40;49.20;;;;;;5011287;28;20556;-65
2021/12/12 07:21:23;;;;;;;2.22;1.05;;;20.40;49.20;;;;;;5012188;28;20538;-65
2021/12/12 07:23:49;;;;;;;2.30;1.00;;;20.40;49.20;;;;;;5012602;28;20042;-66
2021/12/12 07:26:15;;;;;;;2.47;1.30;;;20.50;49.30;;;;;;4995013;28;20812;-66
2021/12/12 07:28:41;;;;;;;2.15;1.00;;;20.40;49.20;;;;;;5012645;28;20064;-65
2021/12/12 07:31:18;;;;;;;3.38;1.20;;;20.50;49.30;;;;;;4995333;28;20498;-64
2021/12/12 07:33:44;;;;;;;3.05;1.20;;;20.50;49.30;;;;;;5012127;28;20046;-65
2021/12/12 07:36:10;;;;;;;3.47;1.17;;;20.50;49.30;;;;;;5013133;28;20042;-65
2021/12/12 07:38:36;;;;;;;3.15;1.00;;;20.50;49.30;;;;;;5012714;28;20081;-64
2021/12/12 07:41:02;;;;;;;5.20;0.90;;;20.50;49.30;;;;;;5012156;28;20081;-65
2021/12/12 07:43:28;;;;;;;3.03;0.93;;;20.40;49.40;;;;;;4995532;28;20117;-65
2021/12/12 07:45:54;;;;;;;1.27;0.80;;;20.50;49.50;;;;;;4994718;28;20069;-62
2021/12/12 07:48:20;;;;;;;3.10;1.10;;;20.50;49.40;;;;;;5012223;28;20053;-64
2021/12/12 07:50:46;;;;;;;2.45;1.00;;;20.50;49.40;;;;;;5011206;28;20130;-64
2021/12/12 07:53:11;;;;;;;2.17;0.90;;;20.40;49.40;;;;;;5012393;28;20509;-64
2021/12/12 07:55:37;;;;;;;2.78;1.05;;;20.50;49.50;;;;;;4994595;28;20040;-64
2021/12/12 07:58:07;;;;;;;1.80;0.80;;;20.50;49.50;;;;;;5012685;28;20072;-64
2021/12/12 08:00:33;;;;;;;3.55;0.80;;;20.50;49.50;;;;;;5011318;28;20060;-64
2021/12/12 08:02:59;;;;;;;2.75;0.90;;;20.50;49.60;;;;;;4994413;28;20050;-64
2021/12/12 08:05:29;;;;;;;2.90;0.70;;;20.50;49.80;;;;;;5011558;28;20445;-63
2021/12/12 08:08:00;;;;;;;3.97;0.95;;;20.50;49.90;;;;;;5012525;28;20046;-64
2021/12/12 08:10:26;;;;;;;2.38;0.60;;;20.50;50.10;;;;;;5010986;28;20128;-63
2021/12/12 08:12:52;;;;;;;2.38;0.88;;;20.50;50.20;;;;;;4994600;28;20046;-63
2021/12/12 08:15:17;;;;;;;1.60;0.70;;;20.50;50.20;;;;;;4994672;28;20053;-64
2021/12/12 08:17:43;;;;;;;2.85;0.80;;;20.50;50.30;;;;;;5019669;28;20394;-63
2021/12/12 08:20:10;;;;;;;3.70;0.90;;;20.50;50.40;;;;;;4997227;28;20077;-62
2021/12/12 08:22:35;;;;;;;4.95;0.85;;;20.60;50.60;;;;;;5012206;28;20084;-62
2021/12/12 08:25:04;;;;;;;2.20;0.77;;;20.60;50.80;;;;;;5011079;28;20089;-63
2021/12/12 08:27:29;;;;;;;2.67;0.70;;;20.60;50.90;;;;;;4994894;28;20100;-64
2021/12/12 08:29:56;;;;;;;2.92;1.15;;;20.60;51.00;;;;;;4993998;28;20078;-64
2021/12/12 08:32:22;;;;;;;2.50;0.70;;;20.60;51.80;;;;;;4994882;28;20502;-65
2021/12/12 08:34:48;;;;;;;3.78;1.00;;;20.60;51.20;;;;;;4994400;28;20050;-64
2021/12/12 08:37:13;;;;;;;5.18;1.08;;;20.60;51.40;;;;;;4994251;28;20054;-64
2021/12/12 08:39:39;;;;;;;2.10;0.70;;;20.60;51.40;;;;;;4994782;28;20054;-64
2021/12/12 08:42:05;;;;;;;2.92;0.73;;;20.60;51.50;;;;;;5018745;28;20057;-65
2021/12/12 08:44:31;;;;;;;4.10;0.90;;;20.60;51.50;;;;;;5009186;28;20037;-64
2021/12/12 08:46:58;;;;;;;1.75;0.82;;;20.60;51.50;;;;;;5017705;28;20052;-64
2021/12/12 08:49:25;;;;;;;1.55;0.60;;;20.60;51.70;;;;;;5017860;28;20049;-63
2021/12/12 08:51:53;;;;;;;1.85;0.80;;;20.60;51.70;;;;;;5017069;28;20056;-63
2021/12/12 08:54:25;;;;;;;1.38;0.50;;;20.60;51.70;;;;;;5017563;28;20068;-64
2021/12/12 08:57:02;;;;;;;1.80;0.73;;;20.60;51.70;;;;;;5017822;28;20085;-63
2021/12/12 08:59:28;;;;;;;2.53;0.82;;;20.60;51.80;;;;;;5035177;28;20045;-63
2021/12/12 09:01:56;;;;;;;1.73;0.55;;;20.60;51.80;;;;;;5016860;28;20045;-64
2021/12/12 09:04:22;;;;;;;3.10;0.70;;;20.70;51.90;;;;;;5017677;28;20524;-64
2021/12/12 09:06:57;;;;;;;3.33;0.73;;;20.70;52.00;;;;;;5017179;28;20033;-64
2021/12/12 09:09:26;;;;;;;1.88;0.60;;;20.70;52.00;;;;;;5001477;28;20046;-64
2021/12/12 09:12:07;;;;;;;1.80;0.68;;;20.70;52.00;;;;;;5034453;28;20172;-64
2021/12/12 09:14:50;;;;;;;5.60;1.00;;;20.70;52.10;;;;;;5017761;28;20500;-63
2021/12/12 09:17:30;;;;;;;3.22;0.80;;;20.70;52.10;;;;;;5017368;28;20493;-62
2021/12/12 09:20:09;;;;;;;1.55;0.77;;;20.70;52.10;;;;;;5016503;28;20451;-63
2021/12/12 09:23:01;;;;;;;2.17;0.70;;;20.70;52.20;;;;;;5017328;28;20041;-62
2021/12/12 09:25:41;;;;;;;1.45;0.60;;;20.70;52.20;;;;;;5004552;28;20605;-63
2021/12/12 09:28:08;;;;;;;3.80;0.80;;;20.70;52.00;;;;;;5034945;28;20050;-63
2021/12/12 09:30:35;;;;;;;1.65;0.80;;;20.70;51.80;;;;;;5017191;28;20068;-62
2021/12/12 09:33:06;;;;;;;3.10;0.60;;;20.70;51.90;;;;;;5016584;28;20060;-62
2021/12/12 09:35:50;;;;;;;4.10;0.70;;;20.70;52.80;;;;;;5016534;28;20050;-63
2021/12/12 09:38:42;;;;;;;3.10;0.82;;;20.70;52.20;;;;;;4984546;28;20047;-62
2021/12/12 09:41:45;;;;;;;2.58;0.60;;;20.80;52.30;;;;;;4995613;28;20057;-62
2021/12/12 09:44:42;;;;;;;1.45;0.70;;;20.80;52.40;;;;;;5003693;28;20056;-62
2021/12/12 09:47:32;;;;;;;2.38;0.70;;;20.80;52.50;;;;;;5016384;28;20132;-63
2021/12/12 09:53:20;;;;;;;1.95;0.73;;;20.80;52.50;;;;;;5019315;28;20049;-62
2021/12/12 09:55:58;;;;;;;3.05;0.77;;;20.80;52.50;;;;;;5033562;28;20045;-62
2021/12/12 09:58:42;;;;;;;2.63;0.60;;;20.80;52.50;;;;;;5001350;28;20057;-61
2021/12/12 10:01:17;;;;;;;1.65;0.60;;;20.80;52.40;;;;;;5010354;28;20124;-61
2021/12/12 10:03:49;;;;;;;3.40;0.70;;;20.80;52.30;;;;;;5023388;28;20132;-62
2021/12/12 10:06:36;;;;;;;7.55;0.93;;;20.80;52.20;;;;;;5024645;28;20482;-61
2021/12/12 10:09:16;;;;;;;4.65;0.90;;;20.80;52.20;;;;;;4967394;28;20037;-62
2021/12/12 10:12:28;;;;;;;2.70;0.88;;;20.80;52.10;;;;;;5024529;28;20049;-62
2021/12/12 10:15:13;;;;;;;2.15;0.77;;;20.80;52.10;;;;;;4953942;28;20427;-62
2021/12/12 10:17:46;;;;;;;2.80;0.85;;;20.80;52.10;;;;;;5009607;28;20081;-61
2021/12/12 10:20:13;;;;;;;2.67;0.80;;;20.80;52.20;;;;;;4996093;28;20161;-62
2021/12/12 10:22:54;;;;;;;2.55;0.68;;;20.80;52.40;;;;;;5012451;28;20501;-61
2021/12/12 10:25:30;;;;;;;1.77;0.80;;;20.80;52.50;;;;;;5013363;28;20080;-62
2021/12/12 10:28:01;;;;;;;3.25;0.88;;;20.80;52.50;;;;;;5001380;28;20060;-63
2021/12/12 10:30:31;;;;;;;3.45;0.75;;;20.80;52.60;;;;;;5009509;28;20409;-62
2021/12/12 10:33:04;;;;;;;4.75;0.80;;;20.80;52.60;;;;;;4996973;28;20041;-62
2021/12/12 10:35:42;;;;;;;2.50;0.80;;;20.80;52.50;;;;;;5033634;28;20128;-62
2021/12/12 10:38:19;;;;;;;3.22;0.90;;;20.80;52.50;;;;;;5032373;28;20099;-63
2021/12/12 10:40:47;;;;;;;3.38;0.90;;;20.80;52.40;;;;;;5000186;28;20060;-63
2021/12/12 10:43:22;;;;;;;4.40;0.82;;;20.80;52.40;;;;;;5033149;28;20046;-62
2021/12/12 10:46:11;;;;;;;4.95;1.02;;;20.90;52.40;;;;;;4999883;28;20045;-65
2021/12/12 10:48:55;;;;;;;2.72;0.93;;;20.90;52.50;;;;;;4981294;28;20073;-62
2021/12/12 10:51:21;;;;;;;5.13;0.95;;;20.90;52.90;;;;;;4987509;28;20061;-64
2021/12/12 10:54:16;;;;;;;4.80;0.90;;;20.90;53.00;;;;;;5024245;28;20061;-64
2021/12/12 10:56:50;;;;;;;3.53;0.90;;;20.90;53.20;;;;;;4994848;28;20077;-63
2021/12/12 10:59:28;;;;;;;3.58;1.00;;;20.90;53.20;;;;;;4988683;28;20477;-64
2021/12/12 11:01:58;;;;;;;2.83;0.80;;;20.90;53.40;;;;;;5015121;28;20049;-63
2021/12/12 11:04:42;;;;;;;3.55;0.80;;;20.90;53.40;;;;;;5014674;28;20071;-63
2021/12/12 11:07:21;;;;;;;2.65;0.93;;;21.00;53.50;;;;;;5015656;28;20045;-63
2021/12/12 11:09:59;;;;;;;4.03;0.90;;;21.00;53.50;;;;;;5000042;28;20046;-65
2021/12/12 11:12:35;;;;;;;3.20;0.88;;;21.00;53.70;;;;;;5014826;28;20164;-63
2021/12/12 11:15:06;;;;;;;2.03;0.88;;;21.00;53.50;;;;;;4997433;28;20126;-63
2021/12/12 11:17:37;;;;;;;4.07;0.80;;;21.00;53.40;;;;;;4998794;28;20363;-63
2021/12/12 11:20:11;;;;;;;3.65;0.82;;;21.00;53.50;;;;;;5031601;28;20401;-62
2021/12/12 11:22:46;;;;;;;2.30;0.80;;;21.00;53.60;;;;;;4998580;28;20683;-62
2021/12/12 11:25:18;;;;;;;2.03;0.90;;;21.00;53.60;;;;;;5015796;28;20490;-62
2021/12/12 11:27:50;;;;;;;2.60;0.80;;;21.00;53.70;;;;;;5032786;28;20134;-63
2021/12/12 11:30:24;;;;;;;2.65;0.70;;;21.00;53.80;;;;;;5032931;28;20490;-63
2021/12/12 11:32:51;;;;;;;3.50;0.68;;;21.00;53.80;;;;;;5013465;28;20412;-62
2021/12/12 11:35:20;;;;;;;3.63;0.90;;;21.00;53.80;;;;;;5022295;28;20053;-63
2021/12/12 11:37:56;;;;;;;3.63;0.90;;;21.00;53.80;;;;;;5016404;28;20042;-62
2021/12/12 11:40:27;;;;;;;4.20;1.58;;;21.10;53.80;;;;;;4992929;28;20057;-63
2021/12/12 11:42:58;;;;;;;2.95;0.85;;;21.10;53.90;;;;;;5011810;28;20085;-63
2021/12/12 11:45:32;;;;;;;3.63;0.90;;;21.10;54.00;;;;;;5012612;28;20045;-63
2021/12/12 11:48:14;;;;;;;4.13;0.77;;;21.10;54.10;;;;;;4993969;28;20058;-63
2021/12/12 11:50:54;;;;;;;2.05;0.70;;;21.10;54.00;;;;;;4978796;28;20064;-63
2021/12/12 11:53:42;;;;;;;3.17;0.90;;;21.10;54.00;;;;;;4994278;28;20046;-63
2021/12/12 11:56:13;;;;;;;4.13;1.05;;;21.10;54.10;;;;;;5011965;28;20050;-62
2021/12/12 11:59:04;;;;;;;1.90;0.73;;;21.10;54.10;;;;;;5011885;28;20505;-63
2021/12/12 12:01:46;;;;;;;4.30;0.80;;;21.20;54.20;;;;;;4994244;28;20489;-62
2021/12/12 12:04:23;;;;;;;3.60;0.95;;;21.20;54.20;;;;;;4994837;28;20081;-63
2021/12/12 12:07:13;;;;;;;1.30;0.68;;;21.20;54.30;;;;;;5022776;28;20041;-65
2021/12/12 12:09:48;;;;;;;3.45;0.80;;;21.20;54.20;;;;;;4997872;28;20442;-64
2021/12/12 12:12:49;;;;;;;3.20;0.80;;;21.20;54.20;;;;;;5031912;28;20080;-64
2021/12/12 12:15:39;;;;;;;2.33;0.77;;;21.20;54.00;;;;;;4992111;28;20064;-64
2021/12/12 12:18:20;;;;;;;1.95;0.60;;;21.10;53.80;;;;;;5002444;28;20099;-64
2021/12/12 12:20:54;;;;;;;1.67;0.80;;;21.10;53.90;;;;;;5018366;28;20099;-64
2021/12/12 12:23:20;;;;;;;2.38;0.50;;;21.10;53.70;;;;;;5018561;28;20136;-64
2021/12/12 12:28:57;;;;;;;2.75;0.70;;;21.20;53.70;;;;;;5017942;28;20049;-65
2021/12/12 12:31:36;;;;;;;1.25;0.65;;;21.10;53.70;;;;;;5018081;28;20037;-64
2021/12/12 12:34:39;;;;;;;2.10;0.65;;;21.10;53.70;;;;;;5025413;28;20060;-64
2021/12/12 12:37:42;;;;;;;1.58;0.77;;;21.10;53.70;;;;;;5003275;28;20133;-63
2021/12/12 12:40:36;;;;;;;2.33;0.70;;;21.10;53.80;;;;;;4997123;28;20045;-63
2021/12/12 12:43:24;;;;;;;3.67;0.90;;;21.10;54.00;;;;;;4996786;28;20042;-61
2021/12/12 12:46:08;;;;;;;1.55;0.70;;;21.20;54.20;;;;;;5014759;28;20080;-62
2021/12/12 12:48:45;;;;;;;1.15;0.60;;;21.20;54.20;;;;;;4997353;28;20129;-62
2021/12/12 12:51:36;;;;;;;3.50;0.98;;;21.20;54.20;;;;;;4996066;28;20080;-62
2021/12/12 12:54:10;;;;;;;4.90;1.10;;;21.20;54.40;;;;;;4998501;28;20053;-63
2021/12/12 12:57:06;;;;;;;3.33;0.75;;;21.20;54.40;;;;;;5032525;28;20061;-62
2021/12/12 12:59:57;;;;;;;2.35;0.77;;;21.20;54.50;;;;;;4997698;28;20052;-63
2021/12/12 13:02:32;;;;;;;1.58;0.73;;;21.20;54.60;;;;;;5006710;28;20054;-63
2021/12/12 13:05:06;;;;;;;4.50;0.93;;;21.20;54.60;;;;;;4993234;28;20058;-62
2021/12/12 13:07:41;;;;;;;3.33;0.63;;;21.20;54.60;;;;;;4993877;28;20054;-62
2021/12/12 13:10:13;;;;;;;3.45;1.13;;;21.20;54.60;;;;;;4995161;28;20061;-61
2021/12/12 13:13:17;;;;;;;2.00;0.60;;;21.20;54.70;;;;;;4993923;28;20054;-62
2021/12/12 13:16:09;;;;;;;2.95;0.70;;;21.30;54.80;;;;;;4993786;28;20074;-62
2021/12/12 13:18:47;;;;;;;2.13;0.80;;;21.20;54.70;;;;;;4995862;28;20057;-61
2021/12/12 13:21:21;;;;;;;1.58;0.60;;;21.20;54.80;;;;;;4993546;28;20049;-61
2021/12/12 13:24:07;;;;;;;1.75;0.60;;;21.20;54.80;;;;;;4993874;28;20050;-62
2021/12/12 13:27:07;;;;;;;3.33;0.80;;;21.20;54.90;;;;;;4994380;28;20042;-62
2021/12/12 13:29:51;;;;;;;2.78;1.05;;;21.20;54.90;;;;;;4993866;28;20106;-62
2021/12/12 13:32:21;;;;;;;2.30;0.60;;;21.20;54.90;;;;;;4994702;28;20050;-61